sensor_id;sensor_type;location;lat;lon;timestamp;P1;durP1;ratioP1;P2;durP2;ratioP2
17953;SDS011;9102;53.548;9.926;2022-09-17T00:02:02;38.05;;;4.82;;
17953;SDS011;9102;53.548;9.926;2022-09-17T00:04:31;53.22;;;5.82;;
17953;SDS011;9102;53.548;9.926;2022-09-17T00:06:58;34.63;;;4.32;;
17953;SDS011;9102;53.548;9.926;2022-09-17T00:09:25;42.65;;;4.63;;
17953;SDS011;9102;53.548;9.926;2022-09-17T00:11:53;38.35;;;4.40;;
17953;SDS011;9102;53.548;9.926;2022-09-17T00:14:20;37.55;;;4.60;;
17953;SDS011;9102;53.548;9.926;2022-09-17T00:16:47;42.50;;;4.72;;
17953;SDS011;9102;53.548;9.926;2022-09-17T00:19:15;45.78;;;5.68;;
17953;SDS011;9102;53.548;9.926;2022-09-17T00:21:43;48.33;;;5.38;;
17953;SDS011;9102;53.548;9.926;2022-09-17T00:24:10;37.58;;;4.75;;
17953;SDS011;9102;53.548;9.926;2022-09-17T00:26:37;42.80;;;4.10;;
17953;SDS011;9102;53.548;9.926;2022-09-17T00:29:06;33.03;;;4.47;;
17953;SDS011;9102;53.548;9.926;2022-09-17T00:31:33;34.63;;;3.75;;
17953;SDS011;9102;53.548;9.926;2022-09-17T00:34:00;38.35;;;4.28;;
17953;SDS011;9102;53.548;9.926;2022-09-17T00:36:27;33.65;;;3.97;;
17953;SDS011;9102;53.548;9.926;2022-09-17T00:38:55;39.35;;;4.38;;
17953;SDS011;9102;53.548;9.926;2022-09-17T00:41:25;30.05;;;3.72;;
17953;SDS011;9102;53.548;9.926;2022-09-17T00:47:18;32.85;;;4.00;;
17953;SDS011;9102;53.548;9.926;2022-09-17T00:49:49;34.95;;;4.40;;
17953;SDS011;9102;53.548;9.926;2022-09-17T00:52:19;29.80;;;3.88;;
17953;SDS011;9102;53.548;9.926;2022-09-17T00:54:51;29.75;;;3.63;;
17953;SDS011;9102;53.548;9.926;2022-09-17T00:57:22;32.33;;;4.15;;
17953;SDS011;9102;53.548;9.926;2022-09-17T00:59:49;29.15;;;3.80;;
17953;SDS011;9102;53.548;9.926;2022-09-17T01:02:18;33.42;;;4.13;;
17953;SDS011;9102;53.548;9.926;2022-09-17T01:04:46;35.55;;;3.55;;
17953;SDS011;9102;53.548;9.926;2022-09-17T01:07:15;39.05;;;4.05;;
17953;SDS011;9102;53.548;9.926;2022-09-17T01:09:51;32.17;;;3.63;;
17953;SDS011;9102;53.548;9.926;2022-09-17T01:12:28;33.50;;;5.20;;
17953;SDS011;9102;53.548;9.926;2022-09-17T01:15:16;35.90;;;3.25;;
17953;SDS011;9102;53.548;9.926;2022-09-17T01:17:57;22.23;;;3.22;;
17953;SDS011;9102;53.548;9.926;2022-09-17T01:23:44;19.63;;;2.75;;
17953;SDS011;9102;53.548;9.926;2022-09-17T01:26:36;27.15;;;4.63;;
17953;SDS011;9102;53.548;9.926;2022-09-17T01:29:23;26.73;;;3.17;;
17953;SDS011;9102;53.548;9.926;2022-09-17T01:32:05;24.13;;;3.35;;
17953;SDS011;9102;53.548;9.926;2022-09-17T01:34:39;30.15;;;3.20;;
17953;SDS011;9102;53.548;9.926;2022-09-17T01:37:11;25.73;;;3.85;;
17953;SDS011;9102;53.548;9.926;2022-09-17T01:39:43;25.63;;;3.50;;
17953;SDS011;9102;53.548;9.926;2022-09-17T01:42:15;26.48;;;3.92;;
17953;SDS011;9102;53.548;9.926;2022-09-17T01:44:48;22.38;;;3.33;;
17953;SDS011;9102;53.548;9.926;2022-09-17T01:47:20;20.40;;;4.13;;
17953;SDS011;9102;53.548;9.926;2022-09-17T01:53:10;21.33;;;3.10;;
17953;SDS011;9102;53.548;9.926;2022-09-17T01:55:39;21.88;;;3.25;;
17953;SDS011;9102;53.548;9.926;2022-09-17T01:58:10;26.88;;;3.03;;
17953;SDS011;9102;53.548;9.926;2022-09-17T02:00:41;29.77;;;4.18;;
17953;SDS011;9102;53.548;9.926;2022-09-17T02:03:22;23.75;;;3.22;;
17953;SDS011;9102;53.548;9.926;2022-09-17T02:05:54;27.23;;;2.85;;
17953;SDS011;9102;53.548;9.926;2022-09-17T02:08:27;20.35;;;2.63;;
17953;SDS011;9102;53.548;9.926;2022-09-17T02:10:57;22.80;;;3.47;;
17953;SDS011;9102;53.548;9.926;2022-09-17T02:13:29;18.67;;;2.60;;
17953;SDS011;9102;53.548;9.926;2022-09-17T02:16:01;27.52;;;3.25;;
17953;SDS011;9102;53.548;9.926;2022-09-17T02:18:33;26.17;;;3.40;;
17953;SDS011;9102;53.548;9.926;2022-09-17T02:21:06;26.00;;;3.67;;
17953;SDS011;9102;53.548;9.926;2022-09-17T02:23:41;28.50;;;3.85;;
17953;SDS011;9102;53.548;9.926;2022-09-17T02:26:14;27.23;;;3.40;;
17953;SDS011;9102;53.548;9.926;2022-09-17T02:28:45;23.88;;;3.28;;
17953;SDS011;9102;53.548;9.926;2022-09-17T02:31:15;26.30;;;3.20;;
17953;SDS011;9102;53.548;9.926;2022-09-17T02:33:46;23.20;;;2.85;;
17953;SDS011;9102;53.548;9.926;2022-09-17T02:36:15;16.27;;;2.58;;
17953;SDS011;9102;53.548;9.926;2022-09-17T02:38:43;19.88;;;2.38;;
17953;SDS011;9102;53.548;9.926;2022-09-17T02:41:13;20.20;;;2.72;;
17953;SDS011;9102;53.548;9.926;2022-09-17T02:43:46;13.70;;;2.70;;
17953;SDS011;9102;53.548;9.926;2022-09-17T02:46:26;24.75;;;3.03;;
17953;SDS011;9102;53.548;9.926;2022-09-17T02:49:34;22.08;;;2.88;;
17953;SDS011;9102;53.548;9.926;2022-09-17T02:52:11;16.58;;;2.55;;
17953;SDS011;9102;53.548;9.926;2022-09-17T02:54:49;18.58;;;2.78;;
17953;SDS011;9102;53.548;9.926;2022-09-17T02:57:26;20.50;;;2.67;;
17953;SDS011;9102;53.548;9.926;2022-09-17T03:00:03;16.65;;;3.00;;
17953;SDS011;9102;53.548;9.926;2022-09-17T03:02:34;22.15;;;3.13;;
17953;SDS011;9102;53.548;9.926;2022-09-17T03:05:07;18.58;;;3.05;;
17953;SDS011;9102;53.548;9.926;2022-09-17T03:07:35;17.52;;;2.75;;
17953;SDS011;9102;53.548;9.926;2022-09-17T03:10:03;17.25;;;2.45;;
17953;SDS011;9102;53.548;9.926;2022-09-17T03:12:30;18.83;;;2.75;;
17953;SDS011;9102;53.548;9.926;2022-09-17T03:14:57;20.10;;;2.47;;
17953;SDS011;9102;53.548;9.926;2022-09-17T03:17:24;15.13;;;2.42;;
17953;SDS011;9102;53.548;9.926;2022-09-17T03:19:51;17.17;;;2.78;;
17953;SDS011;9102;53.548;9.926;2022-09-17T03:22:20;20.33;;;2.55;;
17953;SDS011;9102;53.548;9.926;2022-09-17T03:24:47;22.73;;;3.30;;
17953;SDS011;9102;53.548;9.926;2022-09-17T03:27:13;15.05;;;2.00;;
17953;SDS011;9102;53.548;9.926;2022-09-17T03:29:40;14.48;;;2.28;;
17953;SDS011;9102;53.548;9.926;2022-09-17T03:32:07;20.95;;;2.22;;
17953;SDS011;9102;53.548;9.926;2022-09-17T03:34:34;16.15;;;2.35;;
17953;SDS011;9102;53.548;9.926;2022-09-17T03:37:01;19.40;;;2.60;;
17953;SDS011;9102;53.548;9.926;2022-09-17T03:39:29;15.18;;;2.50;;
17953;SDS011;9102;53.548;9.926;2022-09-17T03:41:56;22.85;;;3.08;;
17953;SDS011;9102;53.548;9.926;2022-09-17T03:44:23;20.33;;;2.83;;
17953;SDS011;9102;53.548;9.926;2022-09-17T03:46:49;18.33;;;2.30;;
17953;SDS011;9102;53.548;9.926;2022-09-17T03:49:16;15.23;;;2.67;;
17953;SDS011;9102;53.548;9.926;2022-09-17T03:51:43;20.92;;;3.25;;
17953;SDS011;9102;53.548;9.926;2022-09-17T03:57:33;20.33;;;2.85;;
17953;SDS011;9102;53.548;9.926;2022-09-17T04:00:00;18.48;;;2.30;;
17953;SDS011;9102;53.548;9.926;2022-09-17T04:02:27;12.75;;;2.28;;
17953;SDS011;9102;53.548;9.926;2022-09-17T04:04:54;13.48;;;2.30;;
17953;SDS011;9102;53.548;9.926;2022-09-17T04:07:21;16.42;;;1.98;;
17953;SDS011;9102;53.548;9.926;2022-09-17T04:09:47;16.77;;;2.22;;
17953;SDS011;9102;53.548;9.926;2022-09-17T04:12:14;18.92;;;2.40;;
17953;SDS011;9102;53.548;9.926;2022-09-17T04:14:42;16.38;;;2.20;;
17953;SDS011;9102;53.548;9.926;2022-09-17T04:17:09;20.52;;;2.20;;
17953;SDS011;9102;53.548;9.926;2022-09-17T04:19:42;16.48;;;2.47;;
17953;SDS011;9102;53.548;9.926;2022-09-17T04:22:08;18.65;;;2.63;;
17953;SDS011;9102;53.548;9.926;2022-09-17T04:24:35;20.17;;;2.58;;
17953;SDS011;9102;53.548;9.926;2022-09-17T04:27:02;19.02;;;2.35;;
17953;SDS011;9102;53.548;9.926;2022-09-17T04:29:29;18.45;;;2.42;;
17953;SDS011;9102;53.548;9.926;2022-09-17T04:31:57;27.05;;;3.22;;
17953;SDS011;9102;53.548;9.926;2022-09-17T04:34:24;21.15;;;2.70;;
17953;SDS011;9102;53.548;9.926;2022-09-17T04:36:50;23.85;;;2.92;;
17953;SDS011;9102;53.548;9.926;2022-09-17T04:39:17;22.33;;;3.00;;
17953;SDS011;9102;53.548;9.926;2022-09-17T04:41:44;21.55;;;2.38;;
17953;SDS011;9102;53.548;9.926;2022-09-17T04:47:38;14.75;;;1.98;;
17953;SDS011;9102;53.548;9.926;2022-09-17T04:50:05;19.02;;;2.58;;
17953;SDS011;9102;53.548;9.926;2022-09-17T04:52:32;25.98;;;2.88;;
17953;SDS011;9102;53.548;9.926;2022-09-17T04:54:59;24.60;;;2.63;;
17953;SDS011;9102;53.548;9.926;2022-09-17T04:57:26;18.10;;;2.67;;
17953;SDS011;9102;53.548;9.926;2022-09-17T04:59:53;17.83;;;2.50;;
17953;SDS011;9102;53.548;9.926;2022-09-17T05:02:20;27.98;;;2.80;;
17953;SDS011;9102;53.548;9.926;2022-09-17T05:04:48;30.77;;;2.97;;
17953;SDS011;9102;53.548;9.926;2022-09-17T05:07:15;24.73;;;2.80;;
17953;SDS011;9102;53.548;9.926;2022-09-17T05:09:41;20.40;;;2.20;;
17953;SDS011;9102;53.548;9.926;2022-09-17T05:12:08;17.20;;;2.58;;
17953;SDS011;9102;53.548;9.926;2022-09-17T05:14:35;24.23;;;2.65;;
17953;SDS011;9102;53.548;9.926;2022-09-17T05:17:02;17.85;;;2.20;;
17953;SDS011;9102;53.548;9.926;2022-09-17T05:19:29;22.17;;;2.53;;
17953;SDS011;9102;53.548;9.926;2022-09-17T05:21:57;21.63;;;2.67;;
17953;SDS011;9102;53.548;9.926;2022-09-17T05:24:24;22.27;;;3.78;;
17953;SDS011;9102;53.548;9.926;2022-09-17T05:26:51;26.15;;;2.92;;
17953;SDS011;9102;53.548;9.926;2022-09-17T05:29:18;18.60;;;2.92;;
17953;SDS011;9102;53.548;9.926;2022-09-17T05:31:45;23.65;;;3.60;;
17953;SDS011;9102;53.548;9.926;2022-09-17T05:34:11;26.08;;;3.15;;
17953;SDS011;9102;53.548;9.926;2022-09-17T05:36:38;23.02;;;3.10;;
17953;SDS011;9102;53.548;9.926;2022-09-17T05:39:06;16.75;;;3.03;;
17953;SDS011;9102;53.548;9.926;2022-09-17T05:41:33;23.02;;;2.58;;
17953;SDS011;9102;53.548;9.926;2022-09-17T05:44:00;26.70;;;3.28;;
17953;SDS011;9102;53.548;9.926;2022-09-17T05:46:27;22.58;;;3.13;;
17953;SDS011;9102;53.548;9.926;2022-09-17T05:48:54;25.92;;;2.88;;
17953;SDS011;9102;53.548;9.926;2022-09-17T05:51:21;22.20;;;2.67;;
17953;SDS011;9102;53.548;9.926;2022-09-17T05:53:52;19.50;;;2.53;;
17953;SDS011;9102;53.548;9.926;2022-09-17T05:56:21;25.00;;;2.75;;
17953;SDS011;9102;53.548;9.926;2022-09-17T05:58:57;21.40;;;2.47;;
17953;SDS011;9102;53.548;9.926;2022-09-17T06:01:27;22.48;;;3.00;;
17953;SDS011;9102;53.548;9.926;2022-09-17T06:03:54;17.77;;;2.75;;
17953;SDS011;9102;53.548;9.926;2022-09-17T06:06:21;25.02;;;2.53;;
17953;SDS011;9102;53.548;9.926;2022-09-17T06:08:53;24.88;;;3.00;;
17953;SDS011;9102;53.548;9.926;2022-09-17T06:11:21;15.40;;;2.10;;
17953;SDS011;9102;53.548;9.926;2022-09-17T06:13:51;21.95;;;3.13;;
17953;SDS011;9102;53.548;9.926;2022-09-17T06:16:19;23.95;;;3.28;;
17953;SDS011;9102;53.548;9.926;2022-09-17T06:18:46;22.20;;;3.28;;
17953;SDS011;9102;53.548;9.926;2022-09-17T06:21:14;20.95;;;2.45;;
17953;SDS011;9102;53.548;9.926;2022-09-17T06:23:41;21.63;;;2.25;;
17953;SDS011;9102;53.548;9.926;2022-09-17T06:26:08;21.10;;;2.70;;
17953;SDS011;9102;53.548;9.926;2022-09-17T06:28:44;18.38;;;2.92;;
17953;SDS011;9102;53.548;9.926;2022-09-17T06:31:14;14.40;;;2.13;;
17953;SDS011;9102;53.548;9.926;2022-09-17T06:33:41;19.58;;;2.58;;
17953;SDS011;9102;53.548;9.926;2022-09-17T06:36:10;18.27;;;2.05;;
17953;SDS011;9102;53.548;9.926;2022-09-17T06:38:37;17.38;;;2.00;;
17953;SDS011;9102;53.548;9.926;2022-09-17T06:41:04;20.73;;;2.38;;
17953;SDS011;9102;53.548;9.926;2022-09-17T06:43:31;16.25;;;1.60;;
17953;SDS011;9102;53.548;9.926;2022-09-17T06:45:59;11.93;;;1.40;;
17953;SDS011;9102;53.548;9.926;2022-09-17T06:48:28;11.77;;;1.67;;
17953;SDS011;9102;53.548;9.926;2022-09-17T06:50:59;13.90;;;1.70;;
17953;SDS011;9102;53.548;9.926;2022-09-17T06:53:31;15.68;;;1.40;;
17953;SDS011;9102;53.548;9.926;2022-09-17T06:55:58;10.63;;;1.23;;
17953;SDS011;9102;53.548;9.926;2022-09-17T06:58:27;16.50;;;1.70;;
17953;SDS011;9102;53.548;9.926;2022-09-17T07:00:56;12.90;;;1.30;;
17953;SDS011;9102;53.548;9.926;2022-09-17T07:03:25;14.70;;;1.60;;
17953;SDS011;9102;53.548;9.926;2022-09-17T07:05:51;9.15;;;1.33;;
17953;SDS011;9102;53.548;9.926;2022-09-17T07:08:18;8.02;;;1.20;;
17953;SDS011;9102;53.548;9.926;2022-09-17T07:10:45;6.40;;;0.90;;
17953;SDS011;9102;53.548;9.926;2022-09-17T07:13:12;10.68;;;0.98;;
17953;SDS011;9102;53.548;9.926;2022-09-17T07:15:39;8.98;;;1.30;;
17953;SDS011;9102;53.548;9.926;2022-09-17T07:18:07;7.35;;;1.10;;
17953;SDS011;9102;53.548;9.926;2022-09-17T07:20:41;8.93;;;1.40;;
17953;SDS011;9102;53.548;9.926;2022-09-17T07:23:07;7.70;;;1.45;;
17953;SDS011;9102;53.548;9.926;2022-09-17T07:25:34;4.35;;;0.85;;
17953;SDS011;9102;53.548;9.926;2022-09-17T07:28:01;6.47;;;1.00;;
17953;SDS011;9102;53.548;9.926;2022-09-17T07:30:28;9.18;;;1.20;;
17953;SDS011;9102;53.548;9.926;2022-09-17T07:32:56;5.80;;;0.90;;
17953;SDS011;9102;53.548;9.926;2022-09-17T07:35:26;11.40;;;1.30;;
17953;SDS011;9102;53.548;9.926;2022-09-17T07:37:54;6.20;;;1.45;;
17953;SDS011;9102;53.548;9.926;2022-09-17T07:40:21;5.70;;;1.25;;
17953;SDS011;9102;53.548;9.926;2022-09-17T07:42:48;11.40;;;1.50;;
17953;SDS011;9102;53.548;9.926;2022-09-17T07:45:15;9.00;;;1.20;;
17953;SDS011;9102;53.548;9.926;2022-09-17T07:47:42;8.50;;;1.45;;
17953;SDS011;9102;53.548;9.926;2022-09-17T07:50:09;7.68;;;1.20;;
17953;SDS011;9102;53.548;9.926;2022-09-17T07:52:36;10.65;;;1.35;;
17953;SDS011;9102;53.548;9.926;2022-09-17T07:55:04;9.15;;;1.60;;
17953;SDS011;9102;53.548;9.926;2022-09-17T07:57:31;10.07;;;1.15;;
17953;SDS011;9102;53.548;9.926;2022-09-17T07:59:58;8.40;;;1.60;;
17953;SDS011;9102;53.548;9.926;2022-09-17T08:02:25;15.40;;;1.63;;
17953;SDS011;9102;53.548;9.926;2022-09-17T08:04:52;11.82;;;1.73;;
17953;SDS011;9102;53.548;9.926;2022-09-17T08:07:19;13.90;;;2.05;;
17953;SDS011;9102;53.548;9.926;2022-09-17T08:09:46;13.15;;;1.90;;
17953;SDS011;9102;53.548;9.926;2022-09-17T08:12:14;12.35;;;1.30;;
17953;SDS011;9102;53.548;9.926;2022-09-17T08:14:42;15.80;;;2.08;;
17953;SDS011;9102;53.548;9.926;2022-09-17T08:17:09;9.95;;;1.45;;
17953;SDS011;9102;53.548;9.926;2022-09-17T08:19:35;8.63;;;1.45;;
17953;SDS011;9102;53.548;9.926;2022-09-17T08:22:02;10.02;;;1.45;;
17953;SDS011;9102;53.548;9.926;2022-09-17T08:24:31;7.82;;;1.38;;
17953;SDS011;9102;53.548;9.926;2022-09-17T08:26:58;10.95;;;1.40;;
17953;SDS011;9102;53.548;9.926;2022-09-17T08:29:26;14.25;;;2.13;;
17953;SDS011;9102;53.548;9.926;2022-09-17T08:31:53;11.50;;;1.73;;
17953;SDS011;9102;53.548;9.926;2022-09-17T08:34:19;6.97;;;1.60;;
17953;SDS011;9102;53.548;9.926;2022-09-17T08:36:46;12.52;;;1.45;;
17953;SDS011;9102;53.548;9.926;2022-09-17T08:39:13;6.90;;;1.20;;
17953;SDS011;9102;53.548;9.926;2022-09-17T08:41:51;7.65;;;1.30;;
17953;SDS011;9102;53.548;9.926;2022-09-17T08:44:31;10.98;;;1.38;;
17953;SDS011;9102;53.548;9.926;2022-09-17T08:47:07;5.28;;;1.05;;
17953;SDS011;9102;53.548;9.926;2022-09-17T08:49:40;8.30;;;1.35;;
17953;SDS011;9102;53.548;9.926;2022-09-17T08:52:17;6.53;;;0.93;;
17953;SDS011;9102;53.548;9.926;2022-09-17T08:54:57;10.35;;;1.17;;
17953;SDS011;9102;53.548;9.926;2022-09-17T08:57:32;5.53;;;1.10;;
17953;SDS011;9102;53.548;9.926;2022-09-17T09:00:08;7.13;;;1.15;;
17953;SDS011;9102;53.548;9.926;2022-09-17T09:02:41;8.63;;;1.25;;
17953;SDS011;9102;53.548;9.926;2022-09-17T09:05:15;10.95;;;1.17;;
17953;SDS011;9102;53.548;9.926;2022-09-17T09:07:46;8.40;;;1.40;;
17953;SDS011;9102;53.548;9.926;2022-09-17T09:10:18;3.85;;;1.30;;
17953;SDS011;9102;53.548;9.926;2022-09-17T09:12:49;4.25;;;0.88;;
17953;SDS011;9102;53.548;9.926;2022-09-17T09:15:25;5.30;;;1.20;;
17953;SDS011;9102;53.548;9.926;2022-09-17T09:18:00;6.45;;;0.70;;
17953;SDS011;9102;53.548;9.926;2022-09-17T09:20:36;7.25;;;0.63;;
17953;SDS011;9102;53.548;9.926;2022-09-17T09:23:10;4.50;;;0.75;;
17953;SDS011;9102;53.548;9.926;2022-09-17T09:25:46;3.28;;;0.57;;
17953;SDS011;9102;53.548;9.926;2022-09-17T09:31:23;3.35;;;0.50;;
17953;SDS011;9102;53.548;9.926;2022-09-17T09:33:59;3.63;;;0.60;;
17953;SDS011;9102;53.548;9.926;2022-09-17T09:36:29;3.40;;;0.60;;
17953;SDS011;9102;53.548;9.926;2022-09-17T09:38:58;3.75;;;0.70;;
17953;SDS011;9102;53.548;9.926;2022-09-17T09:41:29;3.47;;;0.40;;
17953;SDS011;9102;53.548;9.926;2022-09-17T09:44:02;3.45;;;0.35;;
17953;SDS011;9102;53.548;9.926;2022-09-17T09:46:36;2.13;;;0.50;;
17953;SDS011;9102;53.548;9.926;2022-09-17T09:49:34;2.60;;;0.50;;
17953;SDS011;9102;53.548;9.926;2022-09-17T09:52:12;1.92;;;0.50;;
17953;SDS011;9102;53.548;9.926;2022-09-17T09:54:55;2.22;;;0.50;;
17953;SDS011;9102;53.548;9.926;2022-09-17T09:57:31;1.90;;;0.70;;
17953;SDS011;9102;53.548;9.926;2022-09-17T10:02:57;5.70;;;0.52;;
17953;SDS011;9102;53.548;9.926;2022-09-17T10:05:28;6.07;;;0.82;;
17953;SDS011;9102;53.548;9.926;2022-09-17T10:07:55;5.50;;;0.50;;
17953;SDS011;9102;53.548;9.926;2022-09-17T10:10:22;6.57;;;0.75;;
17953;SDS011;9102;53.548;9.926;2022-09-17T10:12:58;3.83;;;0.80;;
17953;SDS011;9102;53.548;9.926;2022-09-17T10:15:31;3.88;;;0.70;;
17953;SDS011;9102;53.548;9.926;2022-09-17T10:20:49;3.58;;;0.70;;
17953;SDS011;9102;53.548;9.926;2022-09-17T10:23:17;5.70;;;0.90;;
17953;SDS011;9102;53.548;9.926;2022-09-17T10:25:45;5.50;;;1.00;;
17953;SDS011;9102;53.548;9.926;2022-09-17T10:28:29;3.10;;;0.68;;
17953;SDS011;9102;53.548;9.926;2022-09-17T10:31:03;3.08;;;0.63;;
17953;SDS011;9102;53.548;9.926;2022-09-17T10:33:36;4.10;;;0.88;;
17953;SDS011;9102;53.548;9.926;2022-09-17T10:36:06;2.78;;;0.70;;
17953;SDS011;9102;53.548;9.926;2022-09-17T10:38:35;4.57;;;0.93;;
17953;SDS011;9102;53.548;9.926;2022-09-17T10:43:50;3.60;;;0.63;;
17953;SDS011;9102;53.548;9.926;2022-09-17T10:46:18;2.65;;;0.70;;
17953;SDS011;9102;53.548;9.926;2022-09-17T10:48:55;2.17;;;0.70;;
17953;SDS011;9102;53.548;9.926;2022-09-17T10:51:30;3.25;;;0.77;;
17953;SDS011;9102;53.548;9.926;2022-09-17T10:56:58;3.65;;;0.73;;
17953;SDS011;9102;53.548;9.926;2022-09-17T10:59:36;3.35;;;0.70;;
17953;SDS011;9102;53.548;9.926;2022-09-17T11:02:29;5.40;;;0.85;;
17953;SDS011;9102;53.548;9.926;2022-09-17T11:05:25;3.95;;;0.95;;
17953;SDS011;9102;53.548;9.926;2022-09-17T11:08:05;6.65;;;1.27;;
17953;SDS011;9102;53.548;9.926;2022-09-17T11:10:38;6.45;;;1.73;;
17953;SDS011;9102;53.548;9.926;2022-09-17T11:13:14;4.30;;;0.70;;
17953;SDS011;9102;53.548;9.926;2022-09-17T11:15:54;7.32;;;0.95;;
17953;SDS011;9102;53.548;9.926;2022-09-17T11:18:36;6.85;;;0.90;;
17953;SDS011;9102;53.548;9.926;2022-09-17T11:21:20;6.07;;;1.00;;
17953;SDS011;9102;53.548;9.926;2022-09-17T11:24:17;6.13;;;1.08;;
17953;SDS011;9102;53.548;9.926;2022-09-17T11:27:16;4.88;;;1.08;;
17953;SDS011;9102;53.548;9.926;2022-09-17T11:30:09;8.55;;;1.23;;
17953;SDS011;9102;53.548;9.926;2022-09-17T11:32:48;6.07;;;1.42;;
17953;SDS011;9102;53.548;9.926;2022-09-17T11:35:28;4.47;;;0.98;;
17953;SDS011;9102;53.548;9.926;2022-09-17T11:38:00;6.40;;;0.88;;
17953;SDS011;9102;53.548;9.926;2022-09-17T11:40:31;4.13;;;0.70;;
17953;SDS011;9102;53.548;9.926;2022-09-17T11:43:06;5.25;;;1.70;;
17953;SDS011;9102;53.548;9.926;2022-09-17T11:45:51;5.15;;;0.70;;
17953;SDS011;9102;53.548;9.926;2022-09-17T11:48:25;6.20;;;1.20;;
17953;SDS011;9102;53.548;9.926;2022-09-17T11:51:00;4.88;;;1.20;;
17953;SDS011;9102;53.548;9.926;2022-09-17T11:53:34;6.28;;;1.20;;
17953;SDS011;9102;53.548;9.926;2022-09-17T11:56:07;6.80;;;1.00;;
17953;SDS011;9102;53.548;9.926;2022-09-17T11:58:42;3.80;;;1.05;;
17953;SDS011;9102;53.548;9.926;2022-09-17T12:01:13;4.50;;;1.20;;
17953;SDS011;9102;53.548;9.926;2022-09-17T12:03:46;4.38;;;1.30;;
17953;SDS011;9102;53.548;9.926;2022-09-17T12:06:18;6.85;;;1.60;;
17953;SDS011;9102;53.548;9.926;2022-09-17T12:08:54;7.07;;;1.17;;
17953;SDS011;9102;53.548;9.926;2022-09-17T12:11:26;5.50;;;1.27;;
17953;SDS011;9102;53.548;9.926;2022-09-17T12:14:00;5.68;;;1.30;;
17953;SDS011;9102;53.548;9.926;2022-09-17T12:16:35;4.88;;;1.00;;
17953;SDS011;9102;53.548;9.926;2022-09-17T12:19:08;6.63;;;1.23;;
17953;SDS011;9102;53.548;9.926;2022-09-17T12:21:41;8.43;;;1.20;;
17953;SDS011;9102;53.548;9.926;2022-09-17T12:24:13;6.45;;;1.50;;
17953;SDS011;9102;53.548;9.926;2022-09-17T12:26:50;7.93;;;1.95;;
17953;SDS011;9102;53.548;9.926;2022-09-17T12:29:39;8.35;;;1.83;;
17953;SDS011;9102;53.548;9.926;2022-09-17T12:32:21;7.65;;;1.48;;
17953;SDS011;9102;53.548;9.926;2022-09-17T12:35:01;6.38;;;1.40;;
17953;SDS011;9102;53.548;9.926;2022-09-17T12:37:39;6.15;;;1.80;;
17953;SDS011;9102;53.548;9.926;2022-09-17T12:40:16;7.78;;;1.40;;
17953;SDS011;9102;53.548;9.926;2022-09-17T12:42:55;7.93;;;1.33;;
17953;SDS011;9102;53.548;9.926;2022-09-17T12:45:35;8.77;;;1.45;;
17953;SDS011;9102;53.548;9.926;2022-09-17T12:51:24;8.02;;;1.98;;
17953;SDS011;9102;53.548;9.926;2022-09-17T12:54:07;9.90;;;1.70;;
17953;SDS011;9102;53.548;9.926;2022-09-17T12:56:48;5.80;;;1.60;;
17953;SDS011;9102;53.548;9.926;2022-09-17T12:59:24;10.75;;;2.33;;
17953;SDS011;9102;53.548;9.926;2022-09-17T13:01:54;11.95;;;2.40;;
17953;SDS011;9102;53.548;9.926;2022-09-17T13:04:39;6.22;;;1.88;;
17953;SDS011;9102;53.548;9.926;2022-09-17T13:07:28;6.63;;;1.67;;
17953;SDS011;9102;53.548;9.926;2022-09-17T13:10:28;9.95;;;1.75;;
17953;SDS011;9102;53.548;9.926;2022-09-17T13:13:11;4.93;;;1.67;;
17953;SDS011;9102;53.548;9.926;2022-09-17T13:15:53;9.13;;;1.88;;
17953;SDS011;9102;53.548;9.926;2022-09-17T13:18:35;8.23;;;1.35;;
17953;SDS011;9102;53.548;9.926;2022-09-17T13:21:08;7.85;;;1.40;;
17953;SDS011;9102;53.548;9.926;2022-09-17T13:23:39;6.50;;;1.40;;
17953;SDS011;9102;53.548;9.926;2022-09-17T13:26:08;7.03;;;1.60;;
17953;SDS011;9102;53.548;9.926;2022-09-17T13:28:43;8.15;;;1.65;;
17953;SDS011;9102;53.548;9.926;2022-09-17T13:31:17;9.35;;;1.50;;
17953;SDS011;9102;53.548;9.926;2022-09-17T13:33:52;8.93;;;1.40;;
17953;SDS011;9102;53.548;9.926;2022-09-17T13:36:34;9.25;;;1.60;;
17953;SDS011;9102;53.548;9.926;2022-09-17T13:39:07;7.55;;;1.50;;
17953;SDS011;9102;53.548;9.926;2022-09-17T13:41:36;9.65;;;1.70;;
17953;SDS011;9102;53.548;9.926;2022-09-17T13:44:07;9.57;;;1.50;;
17953;SDS011;9102;53.548;9.926;2022-09-17T13:46:36;9.15;;;1.80;;
17953;SDS011;9102;53.548;9.926;2022-09-17T13:49:04;11.70;;;1.65;;
17953;SDS011;9102;53.548;9.926;2022-09-17T13:51:47;7.18;;;1.42;;
17953;SDS011;9102;53.548;9.926;2022-09-17T13:54:16;6.45;;;1.40;;
17953;SDS011;9102;53.548;9.926;2022-09-17T13:56:46;11.82;;;1.65;;
17953;SDS011;9102;53.548;9.926;2022-09-17T13:59:18;13.73;;;1.58;;
17953;SDS011;9102;53.548;9.926;2022-09-17T14:01:56;8.80;;;1.45;;
17953;SDS011;9102;53.548;9.926;2022-09-17T14:04:44;11.77;;;1.50;;
17953;SDS011;9102;53.548;9.926;2022-09-17T14:07:31;8.25;;;1.30;;
17953;SDS011;9102;53.548;9.926;2022-09-17T14:10:00;9.45;;;1.95;;
17953;SDS011;9102;53.548;9.926;2022-09-17T14:12:53;12.07;;;2.03;;
17953;SDS011;9102;53.548;9.926;2022-09-17T14:15:57;9.65;;;1.30;;
17953;SDS011;9102;53.548;9.926;2022-09-17T14:21:28;7.63;;;1.13;;
17953;SDS011;9102;53.548;9.926;2022-09-17T14:23:57;7.82;;;1.40;;
17953;SDS011;9102;53.548;9.926;2022-09-17T14:26:46;3.53;;;0.60;;
17953;SDS011;9102;53.548;9.926;2022-09-17T14:29:39;7.90;;;2.13;;
17953;SDS011;9102;53.548;9.926;2022-09-17T14:32:18;10.40;;;3.33;;
17953;SDS011;9102;53.548;9.926;2022-09-17T14:34:54;4.13;;;1.20;;
17953;SDS011;9102;53.548;9.926;2022-09-17T14:37:22;6.95;;;1.13;;
17953;SDS011;9102;53.548;9.926;2022-09-17T14:39:49;3.13;;;0.65;;
17953;SDS011;9102;53.548;9.926;2022-09-17T14:42:18;6.10;;;1.05;;
17953;SDS011;9102;53.548;9.926;2022-09-17T14:44:50;4.25;;;1.08;;
17953;SDS011;9102;53.548;9.926;2022-09-17T14:47:29;3.88;;;1.20;;
17953;SDS011;9102;53.548;9.926;2022-09-17T14:50:08;3.60;;;0.90;;
17953;SDS011;9102;53.548;9.926;2022-09-17T14:52:46;5.30;;;1.20;;
17953;SDS011;9102;53.548;9.926;2022-09-17T14:55:15;8.90;;;1.90;;
17953;SDS011;9102;53.548;9.926;2022-09-17T14:57:44;7.25;;;1.95;;
17953;SDS011;9102;53.548;9.926;2022-09-17T15:00:15;8.82;;;1.70;;
17953;SDS011;9102;53.548;9.926;2022-09-17T15:02:48;9.90;;;1.45;;
17953;SDS011;9102;53.548;9.926;2022-09-17T15:05:24;11.48;;;1.45;;
17953;SDS011;9102;53.548;9.926;2022-09-17T15:08:03;11.25;;;1.58;;
17953;SDS011;9102;53.548;9.926;2022-09-17T15:10:31;11.45;;;1.70;;
17953;SDS011;9102;53.548;9.926;2022-09-17T15:13:00;10.07;;;1.70;;
17953;SDS011;9102;53.548;9.926;2022-09-17T15:15:27;9.63;;;1.90;;
17953;SDS011;9102;53.548;9.926;2022-09-17T15:17:56;11.63;;;1.63;;
17953;SDS011;9102;53.548;9.926;2022-09-17T15:20:24;13.23;;;1.58;;
17953;SDS011;9102;53.548;9.926;2022-09-17T15:22:56;11.48;;;1.63;;
17953;SDS011;9102;53.548;9.926;2022-09-17T15:25:31;7.00;;;1.63;;
17953;SDS011;9102;53.548;9.926;2022-09-17T15:28:03;9.23;;;1.17;;
17953;SDS011;9102;53.548;9.926;2022-09-17T15:30:33;13.93;;;1.55;;
17953;SDS011;9102;53.548;9.926;2022-09-17T15:33:02;10.82;;;1.60;;
17953;SDS011;9102;53.548;9.926;2022-09-17T15:35:29;7.43;;;1.20;;
17953;SDS011;9102;53.548;9.926;2022-09-17T15:37:57;17.08;;;3.38;;
17953;SDS011;9102;53.548;9.926;2022-09-17T15:40:28;7.45;;;1.33;;
17953;SDS011;9102;53.548;9.926;2022-09-17T15:43:00;5.07;;;0.85;;
17953;SDS011;9102;53.548;9.926;2022-09-17T15:45:30;6.70;;;0.90;;
17953;SDS011;9102;53.548;9.926;2022-09-17T15:48:02;11.15;;;0.85;;
17953;SDS011;9102;53.548;9.926;2022-09-17T15:50:30;4.93;;;1.00;;
17953;SDS011;9102;53.548;9.926;2022-09-17T15:53:10;3.40;;;0.75;;
17953;SDS011;9102;53.548;9.926;2022-09-17T15:55:57;3.08;;;1.08;;
17953;SDS011;9102;53.548;9.926;2022-09-17T15:58:27;4.40;;;1.13;;
17953;SDS011;9102;53.548;9.926;2022-09-17T16:09:58;4.60;;;0.90;;